createdAt,value
2018-04-06T00:01:23.238Z,88.35
2018-04-06T00:03:51.659Z,88.35
2018-04-06T00:06:20.043Z,88.77
2018-04-06T00:08:48.644Z,88.52
2018-04-06T00:11:17.055Z,88.69
2018-04-06T00:13:45.559Z,88.70
2018-04-06T00:16:14.013Z,88.78
2018-04-06T00:18:42.549Z,88.58
2018-04-06T00:21:11.013Z,88.64
2018-04-06T00:23:39.509Z,87.47
2018-04-06T00:26:07.924Z,86.57
2018-04-06T00:28:36.364Z,85.78
2018-04-06T00:31:04.707Z,85.58
2018-04-06T00:33:33.081Z,85.57
2018-04-06T00:36:02.231Z,85.57
2018-04-06T00:38:30.672Z,85.55
2018-04-06T00:40:59.072Z,85.16
2018-04-06T00:43:27.455Z,84.80
2018-04-06T00:45:55.874Z,84.18
2018-04-06T00:48:24.360Z,83.87
2018-04-06T00:50:52.758Z,83.63
2018-04-06T00:53:39.524Z,83.46
2018-04-06T00:56:09.242Z,83.36
2018-04-06T00:58:37.640Z,83.14
2018-04-06T01:01:06.228Z,83.57
2018-04-06T01:03:34.935Z,83.95
2018-04-06T01:06:04.100Z,84.25
2018-04-06T01:08:32.508Z,84.53
2018-04-06T01:11:01.673Z,84.13
2018-04-06T01:13:30.099Z,83.57
2018-04-06T01:15:59.266Z,83.46
2018-04-06T01:18:27.668Z,82.80
2018-04-06T01:20:56.051Z,82.47
2018-04-06T01:23:25.228Z,82.50
2018-04-06T01:25:53.609Z,82.67
2018-04-06T01:28:22.008Z,82.79
2018-04-06T01:30:50.917Z,83.05
2018-04-06T01:33:20.078Z,82.86
2018-04-06T01:35:48.515Z,82.81
2018-04-06T01:38:16.891Z,83.59
2018-04-06T01:40:45.287Z,84.29
2018-04-06T01:43:13.664Z,84.69
2018-04-06T01:45:42.076Z,84.50
2018-04-06T01:48:10.484Z,84.87
2018-04-06T01:50:38.951Z,85.24
2018-04-06T01:53:07.355Z,85.20
2018-04-06T01:55:36.554Z,85.82
2018-04-06T01:58:06.104Z,85.79
2018-04-06T02:00:34.531Z,86.07
2018-04-06T02:03:02.914Z,86.17
2018-04-06T02:05:31.312Z,86.48
2018-04-06T02:08:00.464Z,86.04
2018-04-06T02:10:28.871Z,85.76
2018-04-06T02:12:57.279Z,86.35
2018-04-06T02:15:26.607Z,86.35
2018-04-06T02:17:55.037Z,86.84
2018-04-06T02:20:23.413Z,87.24
2018-04-06T02:22:52.571Z,87.04
2018-04-06T02:25:20.949Z,86.47
2018-04-06T02:27:49.384Z,86.46
2018-04-06T02:30:18.578Z,86.50
2018-04-06T02:32:46.959Z,86.03
2018-04-06T02:35:15.338Z,85.68
2018-04-06T02:37:43.738Z,85.69
2018-04-06T02:40:12.113Z,85.19
2018-04-06T02:42:41.390Z,84.92
2018-04-06T02:45:09.801Z,84.59
2018-04-06T02:47:39.066Z,83.36
2018-04-06T02:50:07.466Z,82.99
2018-04-06T02:52:36.641Z,83.18
2018-04-06T02:55:05.025Z,83.53
2018-04-06T02:57:33.447Z,83.64
2018-04-06T03:00:02.707Z,83.23
2018-04-06T03:02:31.147Z,82.88
2018-04-06T03:04:59.544Z,82.65
2018-04-06T03:07:28.014Z,82.55
2018-04-06T03:09:56.402Z,82.25
2018-04-06T03:12:24.898Z,81.91
2018-04-06T03:14:53.298Z,82.48
2018-04-06T03:17:21.656Z,82.07
2018-04-06T03:19:50.147Z,82.00
2018-04-06T03:22:18.527Z,82.15
2018-04-06T03:24:46.914Z,81.84
2018-04-06T03:27:15.294Z,82.70
2018-04-06T03:29:43.725Z,83.03
2018-04-06T03:32:12.104Z,83.10
2018-04-06T03:34:40.539Z,83.14
2018-04-06T03:37:08.935Z,83.28
2018-04-06T03:39:37.325Z,84.10
2018-04-06T03:42:06.475Z,84.04
2018-04-06T03:44:34.866Z,84.38
2018-04-06T03:47:03.273Z,83.41
2018-04-06T03:49:31.939Z,83.65
2018-04-06T03:52:00.355Z,82.38
2018-04-06T03:54:28.823Z,81.82
2018-04-06T03:56:57.223Z,82.26
2018-04-06T03:59:25.602Z,82.10
2018-04-06T04:01:53.991Z,82.00
2018-04-06T04:04:23.174Z,81.98
2018-04-06T04:06:51.570Z,81.73
2018-04-06T04:09:20.768Z,81.76
2018-04-06T04:11:49.925Z,81.82
2018-04-06T04:14:18.309Z,81.88
2018-04-06T04:16:46.804Z,81.54
2018-04-06T04:19:15.584Z,81.36
2018-04-06T04:21:44.015Z,82.06
2018-04-06T04:24:13.237Z,82.14
2018-04-06T04:26:41.647Z,82.53
2018-04-06T04:29:10.071Z,82.95
2018-04-06T04:31:39.227Z,82.98
2018-04-06T04:34:07.627Z,83.44
2018-04-06T04:36:36.033Z,82.78
2018-04-06T04:39:06.138Z,82.73
2018-04-06T04:41:34.560Z,82.67
2018-04-06T04:44:02.952Z,82.59
2018-04-06T04:46:31.351Z,82.04
2018-04-06T04:48:59.737Z,82.28
2018-04-06T04:51:28.145Z,82.41
2018-04-06T04:53:56.600Z,82.39
2018-04-06T04:56:24.992Z,82.25
2018-04-06T04:58:53.383Z,82.59
2018-04-06T05:01:21.778Z,82.76
2018-04-06T05:03:50.950Z,82.91
2018-04-06T05:06:19.311Z,83.05
2018-04-06T05:08:47.710Z,83.53
2018-04-06T05:11:16.084Z,83.57
2018-04-06T05:13:44.461Z,83.24
2018-04-06T05:16:12.916Z,82.65
2018-04-06T05:18:41.314Z,82.82
2018-04-06T05:21:09.731Z,82.85
2018-04-06T05:23:38.107Z,82.67
2018-04-06T05:26:06.523Z,82.36
2018-04-06T05:28:34.925Z,82.03
2018-04-06T05:31:03.335Z,81.79
2018-04-06T05:33:31.731Z,81.00
2018-04-06T05:36:00.144Z,81.44
2018-04-06T05:38:28.610Z,80.97
2018-04-06T05:40:57.759Z,80.22
2018-04-06T05:43:26.201Z,80.02
2018-04-06T05:45:55.351Z,79.91
2018-04-06T05:48:23.738Z,79.58
2018-04-06T05:50:52.251Z,78.42
2018-04-06T05:53:21.552Z,75.74
2018-04-06T05:55:50.700Z,72.49
2018-04-06T05:58:19.208Z,70.28
2018-04-06T06:00:47.575Z,69.30
2018-04-06T06:03:16.046Z,70.35
2018-04-06T06:05:44.443Z,67.46
2018-04-06T06:08:12.839Z,67.42
2018-04-06T06:10:41.358Z,66.56
2018-04-06T06:13:09.776Z,65.20
2018-04-06T06:15:38.205Z,64.48
2018-04-06T06:18:07.355Z,63.33
2018-04-06T06:20:35.756Z,62.13
2018-04-06T06:23:04.310Z,60.78
2018-04-06T06:25:32.765Z,61.57
2018-04-06T06:28:01.221Z,60.24
2018-04-06T06:30:29.631Z,57.12
2018-04-06T06:32:58.061Z,57.30
2018-04-06T06:35:26.468Z,57.94
2018-04-06T06:37:55.662Z,58.38
2018-04-06T06:40:24.047Z,57.00
2018-04-06T06:42:53.541Z,57.72
2018-04-06T06:45:22.018Z,55.43
2018-04-06T06:47:50.417Z,57.25
2018-04-06T06:50:19.631Z,58.16
2018-04-06T06:52:48.775Z,55.91
2018-04-06T06:55:17.192Z,56.64
2018-04-06T06:57:45.587Z,54.07
2018-04-06T07:00:15.568Z,54.55
2018-04-06T07:02:43.984Z,54.36
2018-04-06T07:05:13.335Z,54.03
2018-04-06T07:07:41.744Z,52.12
2018-04-06T07:10:10.941Z,52.81
2018-04-06T07:12:40.107Z,51.71
2018-04-06T07:15:08.516Z,52.89
2018-04-06T07:17:36.987Z,53.23
2018-04-06T07:20:05.510Z,52.66
2018-04-06T07:22:34.688Z,52.05
2018-04-06T07:25:03.949Z,53.80
2018-04-06T07:27:32.421Z,52.39
2018-04-06T07:30:00.863Z,50.68
2018-04-06T07:32:29.331Z,51.10
2018-04-06T07:34:57.713Z,49.56
2018-04-06T07:37:26.339Z,52.21
2018-04-06T07:39:55.664Z,48.64
2018-04-06T07:42:24.062Z,46.09
2018-04-06T07:44:52.481Z,47.24
2018-04-06T07:47:20.905Z,48.92
2018-04-06T07:49:49.358Z,48.11
2018-04-06T07:52:17.840Z,46.98
2018-04-06T07:54:47.199Z,46.81
2018-04-06T07:57:15.854Z,45.82
2018-04-06T07:59:44.280Z,45.44
2018-04-06T08:02:13.156Z,45.42
2018-04-06T08:04:41.582Z,46.23
2018-04-06T08:07:10.753Z,44.72
2018-04-06T08:09:39.282Z,44.28
2018-04-06T08:12:07.808Z,42.22
2018-04-06T08:14:36.384Z,43.42
2018-04-06T08:17:04.953Z,43.09
2018-04-06T08:19:33.376Z,43.16
2018-04-06T08:22:01.791Z,42.14
2018-04-06T08:24:31.224Z,42.10
2018-04-06T08:26:59.638Z,41.01
2018-04-06T08:29:28.083Z,41.52
2018-04-06T08:31:56.527Z,42.72
2018-04-06T08:34:24.950Z,41.42
2018-04-06T08:36:53.429Z,40.85
2018-04-06T08:39:21.824Z,38.99
2018-04-06T08:41:50.235Z,41.88
2018-04-06T08:44:18.730Z,39.36
2018-04-06T08:46:47.193Z,40.38
2018-04-06T08:49:15.600Z,39.63
2018-04-06T08:51:44.005Z,39.89
2018-04-06T08:54:12.466Z,38.26
2018-04-06T08:56:40.831Z,38.25
2018-04-06T08:59:09.232Z,38.63
2018-04-06T09:01:38.420Z,36.50
2018-04-06T09:04:06.801Z,37.35
2018-04-06T09:06:35.223Z,35.98
2018-04-06T09:09:03.619Z,37.24
2018-04-06T09:11:32.038Z,36.62
2018-04-06T09:14:00.474Z,36.12
2018-04-06T09:16:29.111Z,34.88
2018-04-06T09:18:57.493Z,34.93
2018-04-06T09:21:25.902Z,35.93
2018-04-06T09:23:54.314Z,34.64
2018-04-06T09:26:22.682Z,34.49
2018-04-06T09:28:51.088Z,36.44
2018-04-06T09:31:19.463Z,33.66
2018-04-06T09:33:47.871Z,34.01
2018-04-06T09:36:16.271Z,32.54
2018-04-06T09:38:44.696Z,34.78
2018-04-06T09:41:13.174Z,33.92
2018-04-06T09:43:41.612Z,34.64
2018-04-06T09:46:10.036Z,35.13
2018-04-06T09:48:38.440Z,34.26
2018-04-06T09:51:06.852Z,35.17
2018-04-06T09:53:36.044Z,34.07
2018-04-06T09:56:04.446Z,35.88
2018-04-06T09:58:32.919Z,31.96
2018-04-06T10:01:01.315Z,31.69
2018-04-06T10:03:29.719Z,32.49
2018-04-06T10:05:58.120Z,32.94
2018-04-06T10:08:26.528Z,33.34
2018-04-06T10:10:55.693Z,31.65
2018-04-06T10:13:24.088Z,33.31
2018-04-06T10:15:52.496Z,31.21
2018-04-06T10:18:21.688Z,31.01
2018-04-06T10:20:50.329Z,30.31
2018-04-06T10:23:18.847Z,30.68
2018-04-06T10:25:47.238Z,31.69
2018-04-06T10:28:16.389Z,31.90
2018-04-06T10:30:44.856Z,31.11
2018-04-06T10:33:13.254Z,31.61
2018-04-06T10:35:41.751Z,29.06
2018-04-06T10:38:10.168Z,29.62
2018-04-06T10:40:39.351Z,30.10
2018-04-06T10:43:07.759Z,31.74
2018-04-06T10:45:36.967Z,31.15
2018-04-06T10:48:05.415Z,32.82
2018-04-06T10:50:33.815Z,31.29
2018-04-06T10:53:03.045Z,30.68
2018-04-06T10:55:31.521Z,29.78
2018-04-06T10:57:59.940Z,29.49
2018-04-06T11:00:28.313Z,28.52
2018-04-06T11:02:56.701Z,28.45
2018-04-06T11:05:25.106Z,30.71
2018-04-06T11:07:53.507Z,29.11
2018-04-06T11:10:21.948Z,30.89
2018-04-06T11:12:50.467Z,29.35
2018-04-06T11:15:19.678Z,30.78
2018-04-06T11:17:48.076Z,31.59
2018-04-06T11:20:16.530Z,31.51
2018-04-06T11:22:45.669Z,29.97
2018-04-06T11:25:14.105Z,30.98
2018-04-06T11:27:43.263Z,29.63
2018-04-06T11:30:11.664Z,30.44
2018-04-06T11:32:40.080Z,31.20
2018-04-06T11:35:09.465Z,28.79
2018-04-06T11:37:37.880Z,29.90
2018-04-06T11:40:06.258Z,29.98
2018-04-06T11:42:35.421Z,31.62
2018-04-06T11:45:03.821Z,31.06
2018-04-06T11:47:32.955Z,30.80
2018-04-06T11:50:01.555Z,29.73
2018-04-06T11:52:30.031Z,30.46
2018-04-06T11:54:58.405Z,29.94
2018-04-06T11:57:26.892Z,31.25
2018-04-06T11:59:55.442Z,29.16
2018-04-06T12:02:24.772Z,28.65
2018-04-06T12:04:53.266Z,30.04
2018-04-06T12:07:21.696Z,28.56
2018-04-06T12:09:50.870Z,28.75
2018-04-06T12:12:19.299Z,29.91
2018-04-06T12:14:48.668Z,27.94
2018-04-06T12:17:17.419Z,28.84
2018-04-06T12:19:45.823Z,27.84
2018-04-06T12:22:14.219Z,27.60
2018-04-06T12:24:42.721Z,29.16
2018-04-06T12:27:11.892Z,28.34
2018-04-06T12:29:40.279Z,28.96
2018-04-06T12:32:08.719Z,30.07
2018-04-06T12:34:37.134Z,29.03
2018-04-06T12:37:05.577Z,27.86
2018-04-06T12:39:34.075Z,28.71
2018-04-06T12:42:02.549Z,29.08
2018-04-06T12:44:30.939Z,28.32
2018-04-06T12:46:59.356Z,28.59
2018-04-06T12:49:27.794Z,28.29
2018-04-06T12:51:56.279Z,30.40
2018-04-06T12:54:24.685Z,28.84
2018-04-06T12:56:53.284Z,29.26
2018-04-06T12:59:21.696Z,28.84
2018-04-06T13:01:50.847Z,28.57
2018-04-06T13:04:19.250Z,28.55
2018-04-06T13:06:47.645Z,29.09
2018-04-06T13:09:16.071Z,28.02
2018-04-06T13:11:44.570Z,27.71
2018-04-06T13:14:12.993Z,27.82
2018-04-06T13:16:41.414Z,28.45
2018-04-06T13:19:09.851Z,27.91
2018-04-06T13:21:38.256Z,27.98
2018-04-06T13:24:06.658Z,28.80
2018-04-06T13:26:35.816Z,27.99
2018-04-06T13:29:04.226Z,28.31
2018-04-06T13:31:33.397Z,28.76
2018-04-06T13:34:01.795Z,27.42
2018-04-06T13:36:31.015Z,27.64
2018-04-06T13:39:00.210Z,28.99
2018-04-06T13:41:28.598Z,29.13
2018-04-06T13:43:57.887Z,28.06
2018-04-06T13:46:27.067Z,29.38
2018-04-06T13:48:56.421Z,27.68
2018-04-06T13:51:24.886Z,27.72
2018-04-06T13:53:54.056Z,27.19
2018-04-06T13:56:23.574Z,28.07
2018-04-06T13:58:52.073Z,27.57
2018-04-06T14:01:21.265Z,27.66
2018-04-06T14:03:50.443Z,28.34
2018-04-06T14:06:18.828Z,27.36
2018-04-06T14:08:47.248Z,28.41
2018-04-06T14:11:15.676Z,27.02
2018-04-06T14:13:44.058Z,26.43
2018-04-06T14:16:12.464Z,27.08
2018-04-06T14:18:40.843Z,27.94
2018-04-06T14:21:10.043Z,27.70
2018-04-06T14:23:38.494Z,27.58
2018-04-06T14:26:06.890Z,27.56
2018-04-06T14:28:35.290Z,27.43
2018-04-06T14:31:03.685Z,28.10
2018-04-06T14:33:32.871Z,28.56
2018-04-06T14:36:01.407Z,28.17
2018-04-06T14:38:29.819Z,28.30
2018-04-06T14:40:58.223Z,27.59
2018-04-06T14:43:26.781Z,27.36
2018-04-06T14:45:55.279Z,27.54
2018-04-06T14:48:23.720Z,27.22
2018-04-06T14:50:52.143Z,27.43
2018-04-06T14:53:20.636Z,27.29
2018-04-06T14:55:49.129Z,26.75
2018-04-06T14:58:17.487Z,26.60
2018-04-06T15:00:45.967Z,26.85
2018-04-06T15:03:14.370Z,26.99
2018-04-06T15:05:43.672Z,27.77
2018-04-06T15:08:12.155Z,28.19
2018-04-06T15:10:41.698Z,27.48
2018-04-06T15:13:10.115Z,27.87
2018-04-06T15:15:39.317Z,27.14
2018-04-06T15:18:07.718Z,27.26
2018-04-06T15:20:37.406Z,27.88
2018-04-06T15:23:05.836Z,27.88
2018-04-06T15:25:34.994Z,27.77
2018-04-06T15:28:05.072Z,28.29
2018-04-06T15:30:34.233Z,27.86
2018-04-06T15:33:02.632Z,27.89
2018-04-06T15:35:31.032Z,27.48
2018-04-06T15:37:59.422Z,27.64
2018-04-06T15:40:27.822Z,27.97
2018-04-06T15:42:56.257Z,27.83
2018-04-06T15:45:24.668Z,28.31
2018-04-06T15:47:53.127Z,27.94
2018-04-06T15:50:21.581Z,27.60
2018-04-06T15:52:49.979Z,27.18
2018-04-06T15:55:18.560Z,27.92
2018-04-06T15:57:47.717Z,28.16
2018-04-06T16:00:16.138Z,28.96
2018-04-06T16:02:44.521Z,27.84
2018-04-06T16:05:13.719Z,27.69
2018-04-06T16:07:42.229Z,28.13
2018-04-06T16:10:11.476Z,28.28
2018-04-06T16:12:39.996Z,29.41
2018-04-06T16:15:08.387Z,27.96
2018-04-06T16:17:37.533Z,27.71
2018-04-06T16:20:05.929Z,27.94
2018-04-06T16:22:34.365Z,29.19
2018-04-06T16:25:03.577Z,28.47
2018-04-06T16:27:32.017Z,29.58
2018-04-06T16:30:00.532Z,28.54
2018-04-06T16:32:28.992Z,29.64
2018-04-06T16:34:57.386Z,29.63
2018-04-06T16:37:26.540Z,29.51
2018-04-06T16:39:55.125Z,29.73
2018-04-06T16:42:23.701Z,28.43
2018-04-06T16:44:52.088Z,29.89
2018-04-06T16:47:20.528Z,29.80
2018-04-06T16:49:48.973Z,29.66
2018-04-06T16:52:17.379Z,30.56
2018-04-06T16:54:46.686Z,29.69
2018-04-06T16:57:15.897Z,29.54
2018-04-06T16:59:45.089Z,30.83
2018-04-06T17:02:14.249Z,30.13
2018-04-06T17:04:42.741Z,30.66
2018-04-06T17:07:11.144Z,31.53
2018-04-06T17:09:40.313Z,31.38
2018-04-06T17:12:08.760Z,31.64
2018-04-06T17:14:37.185Z,32.14
2018-04-06T17:17:05.605Z,33.42
2018-04-06T17:19:34.012Z,32.54
2018-04-06T17:22:02.421Z,32.88
2018-04-06T17:24:30.824Z,32.77
2018-04-06T17:27:00.011Z,33.47
2018-04-06T17:29:29.179Z,33.04
2018-04-06T17:31:57.600Z,33.77
2018-04-06T17:34:26.002Z,33.47
2018-04-06T17:36:55.188Z,34.05
2018-04-06T17:39:24.352Z,34.74
2018-04-06T17:41:53.716Z,35.12
2018-04-06T17:44:22.133Z,34.62
2018-04-06T17:46:50.553Z,35.03
2018-04-06T17:49:19.811Z,34.78
2018-04-06T17:51:48.194Z,36.25
2018-04-06T17:54:16.683Z,34.76
2018-04-06T17:56:45.099Z,35.48
2018-04-06T17:59:14.304Z,35.49
2018-04-06T18:01:44.516Z,36.28
2018-04-06T18:04:14.387Z,36.40
2018-04-06T18:06:42.827Z,35.80
2018-04-06T18:09:11.382Z,36.07
2018-04-06T18:11:40.563Z,36.66
2018-04-06T18:14:09.942Z,36.61
2018-04-06T18:16:38.515Z,36.88
2018-04-06T18:19:07.124Z,37.67
2018-04-06T18:21:36.319Z,37.34
2018-04-06T18:24:05.516Z,37.92
2018-04-06T18:26:33.905Z,37.73
2018-04-06T18:29:02.305Z,38.02
2018-04-06T18:31:31.468Z,38.46
2018-04-06T18:33:59.860Z,37.94
2018-04-06T18:36:29.043Z,38.44
2018-04-06T18:38:57.451Z,39.02
2018-04-06T18:41:25.892Z,38.35
2018-04-06T18:43:54.311Z,39.53
2018-04-06T18:46:22.691Z,38.65
2018-04-06T18:48:51.225Z,39.05
2018-04-06T18:51:19.651Z,39.37
2018-04-06T18:53:48.091Z,38.79
2018-04-06T18:56:16.647Z,38.71
2018-04-06T18:58:45.487Z,39.61
2018-04-06T19:01:14.736Z,39.64
2018-04-06T19:03:43.248Z,39.70
2018-04-06T19:06:12.046Z,39.09
2018-04-06T19:08:40.463Z,39.21
2018-04-06T19:11:09.736Z,39.55
2018-04-06T19:13:38.154Z,40.25
2018-04-06T19:16:07.325Z,40.07
2018-04-06T19:18:35.720Z,39.89
2018-04-06T19:21:04.134Z,40.14
2018-04-06T19:23:32.637Z,40.15
2018-04-06T19:26:01.970Z,40.15
2018-04-06T19:28:31.204Z,40.27
2018-04-06T19:31:00.699Z,39.58
2018-04-06T19:33:29.888Z,39.68
2018-04-06T19:35:58.338Z,39.94
2018-04-06T19:38:26.908Z,40.16
2018-04-06T19:40:55.438Z,40.80
2018-04-06T19:43:23.993Z,40.78
2018-04-06T19:45:52.427Z,40.95
2018-04-06T19:48:21.673Z,40.81
2018-04-06T19:50:50.245Z,41.23
2018-04-06T19:53:18.724Z,41.61
2018-04-06T19:55:49.125Z,41.01
2018-04-06T19:58:19.729Z,41.44
2018-04-06T20:00:48.176Z,42.02
2018-04-06T20:03:17.368Z,42.29
2018-04-06T20:05:45.801Z,42.22
2018-04-06T20:08:14.238Z,41.85
2018-04-06T20:10:43.408Z,41.81
2018-04-06T20:13:11.810Z,42.08
2018-04-06T20:15:40.203Z,42.18
2018-04-06T20:18:09.458Z,43.15
2018-04-06T20:20:37.928Z,43.02
2018-04-06T20:23:06.378Z,42.82
2018-04-06T20:25:35.552Z,43.33
2018-04-06T20:28:04.206Z,43.70
2018-04-06T20:30:32.608Z,43.23
2018-04-06T20:33:01.876Z,43.99
2018-04-06T20:35:30.309Z,44.01
2018-04-06T20:37:58.706Z,44.09
2018-04-06T20:40:27.919Z,43.82
2018-04-06T20:42:56.335Z,44.37
2018-04-06T20:45:25.736Z,43.92
2018-04-06T20:47:54.142Z,43.83
2018-04-06T20:50:22.735Z,43.96
2018-04-06T20:52:51.174Z,44.12
2018-04-06T20:55:19.586Z,44.59
2018-04-06T20:57:48.055Z,44.26
2018-04-06T21:00:16.442Z,44.36
2018-04-06T21:02:44.900Z,44.37
2018-04-06T21:05:13.322Z,45.21
2018-04-06T21:07:42.291Z,44.76
2018-04-06T21:10:10.750Z,44.95
2018-04-06T21:12:39.197Z,44.46
2018-04-06T21:15:07.750Z,44.95
2018-04-06T21:17:36.181Z,44.68
2018-04-06T21:20:04.569Z,44.71
2018-04-06T21:22:33.816Z,45.06
2018-04-06T21:25:02.220Z,45.24
2018-04-06T21:27:31.543Z,45.50
2018-04-06T21:29:59.954Z,45.19
2018-04-06T21:32:28.416Z,45.38
2018-04-06T21:34:56.870Z,45.35
2018-04-06T21:37:25.270Z,45.42
2018-04-06T21:39:53.711Z,45.59
2018-04-06T21:42:22.182Z,45.42
2018-04-06T21:44:50.596Z,45.14
2018-04-06T21:47:19.177Z,45.97
2018-04-06T21:49:48.344Z,46.04
2018-04-06T21:52:17.841Z,45.50
2018-04-06T21:54:46.380Z,45.18
2018-04-06T21:57:14.791Z,45.65
2018-04-06T21:59:43.192Z,45.70
2018-04-06T22:02:12.999Z,46.48
2018-04-06T22:04:41.424Z,45.88
2018-04-06T22:07:09.840Z,45.90
2018-04-06T22:09:38.526Z,46.10
2018-04-06T22:12:06.965Z,45.64
2018-04-06T22:14:36.173Z,46.47
2018-04-06T22:17:05.417Z,46.83
2018-04-06T22:19:33.799Z,46.19
2018-04-06T22:22:02.275Z,47.14
2018-04-06T22:24:30.710Z,46.50
2018-04-06T22:26:59.970Z,47.34
2018-04-06T22:29:28.353Z,46.38
2018-04-06T22:31:56.780Z,46.26
2018-04-06T22:34:26.015Z,46.51
2018-04-06T22:36:54.985Z,46.88
2018-04-06T22:39:24.283Z,46.55
2018-04-06T22:41:52.900Z,46.36
2018-04-06T22:44:21.426Z,46.16
2018-04-06T22:46:50.623Z,46.34
2018-04-06T22:49:19.112Z,45.50
2018-04-06T22:51:47.529Z,46.38
2018-04-06T22:54:15.942Z,46.12
2018-04-06T22:56:44.330Z,46.04
2018-04-06T22:59:12.731Z,45.92
2018-04-06T23:01:41.114Z,46.40
2018-04-06T23:04:09.514Z,46.14
2018-04-06T23:06:38.850Z,45.96
2018-04-06T23:09:07.525Z,45.98
2018-04-06T23:11:35.913Z,46.70
2018-04-06T23:14:04.323Z,46.43
2018-04-06T23:16:32.721Z,47.16
2018-04-06T23:19:01.140Z,46.48
2018-04-06T23:21:29.523Z,46.30
2018-04-06T23:23:57.949Z,46.47
2018-04-06T23:26:36.239Z,46.42
2018-04-06T23:29:04.640Z,46.25
2018-04-06T23:31:33.051Z,46.13
2018-04-06T23:34:02.243Z,46.70
2018-04-06T23:36:30.687Z,46.52
2018-04-06T23:38:59.080Z,46.93
2018-04-06T23:41:27.516Z,46.87
2018-04-06T23:43:55.875Z,46.82
2018-04-06T23:46:25.046Z,47.22
2018-04-06T23:48:53.689Z,47.54
2018-04-06T23:51:22.088Z,47.69
2018-04-06T23:53:50.512Z,47.22
2018-04-06T23:56:19.054Z,47.20
2018-04-06T23:58:47.597Z,47.73
